createdAt,value
2022-08-07T00:00:53.968Z,935.36
2022-08-07T00:02:36.648Z,935.34
2022-08-07T00:02:54.025Z,935.36
2022-08-07T00:03:55.139Z,935.37
2022-08-07T00:04:53.981Z,935.36
2022-08-07T00:05:54.086Z,935.41
2022-08-07T00:06:53.896Z,935.39
2022-08-07T00:08:00.318Z,935.42
2022-08-07T00:08:54.073Z,935.45
2022-08-07T00:10:17.760Z,935.46
2022-08-07T00:10:57.299Z,935.44
2022-08-07T00:11:56.118Z,935.47
2022-08-07T00:13:00.252Z,935.48
2022-08-07T00:13:53.862Z,935.52
2022-08-07T00:14:53.799Z,935.53
2022-08-07T00:15:53.782Z,935.50
2022-08-07T00:16:53.775Z,935.49
2022-08-07T00:17:53.757Z,935.48
2022-08-07T00:18:54.048Z,935.47
2022-08-07T00:20:01.665Z,935.48
2022-08-07T00:20:53.724Z,935.46
2022-08-07T00:21:57.335Z,935.51
2022-08-07T00:22:53.698Z,935.48
2022-08-07T00:23:53.683Z,935.43
2022-08-07T00:24:53.722Z,935.43
2022-08-07T00:26:00.053Z,935.41
2022-08-07T00:27:06.305Z,935.36
2022-08-07T00:27:56.634Z,935.35
2022-08-07T00:28:56.803Z,935.35
2022-08-07T00:29:53.654Z,935.35
2022-08-07T00:30:53.693Z,935.34
2022-08-07T00:31:53.587Z,935.34
2022-08-07T00:32:53.578Z,935.33
2022-08-07T00:33:53.558Z,935.29
2022-08-07T00:34:53.543Z,935.23
2022-08-07T00:35:53.734Z,935.24
2022-08-07T00:36:53.517Z,935.22
2022-08-07T00:37:53.508Z,935.22
2022-08-07T00:38:53.496Z,935.20
2022-08-07T00:39:54.470Z,935.25
2022-08-07T00:40:53.567Z,935.20
2022-08-07T00:42:02.601Z,935.20
2022-08-07T00:42:53.446Z,935.26
2022-08-07T00:44:00.198Z,935.23
2022-08-07T00:44:53.420Z,935.25
2022-08-07T00:45:53.407Z,935.24
2022-08-07T00:46:53.594Z,935.26
2022-08-07T00:48:08.757Z,935.27
2022-08-07T00:48:53.369Z,935.20
2022-08-07T00:50:19.128Z,935.19
2022-08-07T00:50:53.357Z,935.18
2022-08-07T00:51:56.802Z,935.21
2022-08-07T00:52:53.323Z,935.19
2022-08-07T00:53:55.281Z,935.18
2022-08-07T00:54:53.877Z,935.17
2022-08-07T00:56:02.290Z,935.18
2022-08-07T00:56:53.521Z,935.18
2022-08-07T00:57:55.688Z,935.15
2022-08-07T00:58:53.244Z,935.13
2022-08-07T00:59:53.228Z,935.10
2022-08-07T01:00:53.968Z,935.08
2022-08-07T01:01:53.467Z,935.03
2022-08-07T01:02:53.189Z,934.99
2022-08-07T01:03:56.584Z,934.98
2022-08-07T01:04:53.166Z,934.97
2022-08-07T01:05:53.692Z,934.99
2022-08-07T01:06:53.806Z,934.94
2022-08-07T01:07:53.124Z,934.98
2022-08-07T01:08:55.771Z,934.97
2022-08-07T01:10:06.578Z,934.97
2022-08-07T01:10:54.393Z,934.97
2022-08-07T01:12:09.584Z,934.95
2022-08-07T01:12:54.722Z,934.96
2022-08-07T01:13:56.080Z,934.95
2022-08-07T01:15:00.769Z,934.96
2022-08-07T01:16:04.948Z,934.99
2022-08-07T01:16:53.068Z,934.95
2022-08-07T01:17:53.001Z,934.97
2022-08-07T01:18:52.987Z,934.90
2022-08-07T01:19:54.359Z,934.92
2022-08-07T01:20:58.498Z,934.94
2022-08-07T01:21:55.401Z,934.96
2022-08-07T01:23:12.301Z,934.90
2022-08-07T01:23:52.924Z,934.90
2022-08-07T01:24:52.913Z,934.91
2022-08-07T01:25:56.086Z,934.85
2022-08-07T01:26:53.915Z,934.87
2022-08-07T01:27:52.872Z,934.84
2022-08-07T01:28:52.858Z,934.82
2022-08-07T01:29:52.848Z,934.85
2022-08-07T01:30:52.836Z,934.79
2022-08-07T01:31:52.972Z,934.80
2022-08-07T01:32:52.815Z,934.80
2022-08-07T01:33:55.588Z,934.77
2022-08-07T01:34:52.786Z,934.80
2022-08-07T01:35:54.717Z,934.83
2022-08-07T01:36:58.269Z,934.82
2022-08-07T01:37:52.893Z,934.82
2022-08-07T01:38:52.736Z,934.79
2022-08-07T01:39:52.878Z,934.76
2022-08-07T01:40:52.711Z,934.72
2022-08-07T01:42:07.220Z,934.74
2022-08-07T01:42:58.464Z,934.69
2022-08-07T01:43:52.871Z,934.69
2022-08-07T01:44:52.661Z,934.66
2022-08-07T01:45:54.409Z,934.69
2022-08-07T01:46:52.635Z,934.71
2022-08-07T01:48:18.600Z,934.70
2022-08-07T01:48:52.609Z,934.71
2022-08-07T01:49:53.669Z,934.71
2022-08-07T01:50:52.584Z,934.75
2022-08-07T01:52:02.440Z,934.71
2022-08-07T01:52:54.923Z,934.74
2022-08-07T01:54:12.361Z,934.75
2022-08-07T01:54:52.583Z,934.74
2022-08-07T01:55:52.523Z,934.72
2022-08-07T01:56:52.507Z,934.68
2022-08-07T01:58:06.921Z,934.67
2022-08-07T01:58:52.482Z,934.60
2022-08-07T01:59:52.966Z,934.56
2022-08-07T02:00:52.496Z,934.53
2022-08-07T02:02:01.628Z,934.52
2022-08-07T02:03:18.744Z,934.54
2022-08-07T02:03:52.502Z,934.58
2022-08-07T02:04:56.581Z,934.54
2022-08-07T02:05:59.390Z,934.55
2022-08-07T02:06:52.381Z,934.50
2022-08-07T02:07:52.460Z,934.54
2022-08-07T02:08:54.321Z,934.54
2022-08-07T02:09:58.620Z,934.58
2022-08-07T02:10:55.397Z,934.60
2022-08-07T02:12:02.994Z,934.58
2022-08-07T02:12:52.304Z,934.59
2022-08-07T02:13:57.567Z,934.59
2022-08-07T02:14:52.277Z,934.58
2022-08-07T02:15:52.999Z,934.60
2022-08-07T02:16:52.267Z,934.68
2022-08-07T02:17:52.243Z,934.62
2022-08-07T02:18:52.231Z,934.57
2022-08-07T02:20:05.372Z,934.51
2022-08-07T02:20:55.956Z,934.50
2022-08-07T02:21:56.759Z,934.49
2022-08-07T02:22:53.000Z,934.49
2022-08-07T02:23:52.171Z,934.54
2022-08-07T02:24:52.156Z,934.53
2022-08-07T02:26:30.506Z,934.52
2022-08-07T02:26:52.128Z,934.44
2022-08-07T02:27:53.058Z,934.33
2022-08-07T02:28:52.103Z,934.28
2022-08-07T02:29:54.573Z,934.20
2022-08-07T02:30:52.328Z,934.17
2022-08-07T02:31:52.072Z,934.12
2022-08-07T02:33:09.241Z,934.20
2022-08-07T02:34:01.705Z,934.20
2022-08-07T02:34:52.038Z,934.28
2022-08-07T02:36:29.879Z,934.35
2022-08-07T02:36:52.006Z,934.34
2022-08-07T02:37:51.996Z,934.34
2022-08-07T02:38:56.726Z,934.38
2022-08-07T02:40:12.068Z,934.39
2022-08-07T02:40:56.082Z,934.42
2022-08-07T02:41:54.861Z,934.41
2022-08-07T02:42:51.929Z,934.36
2022-08-07T02:43:51.919Z,934.31
2022-08-07T02:44:52.105Z,934.25
2022-08-07T02:45:59.447Z,934.24
2022-08-07T02:46:52.896Z,934.26
2022-08-07T02:47:51.872Z,934.33
2022-08-07T02:48:55.014Z,934.32
2022-08-07T02:49:57.498Z,934.24
2022-08-07T02:50:51.936Z,934.24
2022-08-07T02:51:52.198Z,934.30
2022-08-07T02:52:51.808Z,934.33
2022-08-07T02:53:51.795Z,934.26
2022-08-07T02:54:52.099Z,934.26
2022-08-07T02:56:03.451Z,934.22
2022-08-07T02:56:52.158Z,934.22
2022-08-07T02:57:51.741Z,934.21
2022-08-07T02:58:54.172Z,934.26
2022-08-07T02:59:55.023Z,934.22
2022-08-07T03:00:51.785Z,934.20
2022-08-07T03:01:52.143Z,934.16
2022-08-07T03:02:54.542Z,934.17
2022-08-07T03:03:51.671Z,934.15
2022-08-07T03:04:51.662Z,934.15
2022-08-07T03:05:51.645Z,934.16
2022-08-07T03:06:51.637Z,934.15
2022-08-07T03:08:06.852Z,934.14
2022-08-07T03:08:52.061Z,934.07
2022-08-07T03:09:52.444Z,934.04
2022-08-07T03:10:51.585Z,933.96
2022-08-07T03:11:57.611Z,933.97
2022-08-07T03:12:51.984Z,933.96
2022-08-07T03:13:51.547Z,934.00
2022-08-07T03:14:52.144Z,934.01
2022-08-07T03:15:56.454Z,933.99
2022-08-07T03:16:52.478Z,934.04
2022-08-07T03:17:53.335Z,934.03
2022-08-07T03:18:51.490Z,934.01
2022-08-07T03:19:54.451Z,934.00
2022-08-07T03:20:51.511Z,933.98
2022-08-07T03:21:51.446Z,933.98
2022-08-07T03:22:51.439Z,933.89
2022-08-07T03:24:20.966Z,933.81
2022-08-07T03:24:51.415Z,933.80
2022-08-07T03:25:58.208Z,933.81
2022-08-07T03:26:59.139Z,933.80
2022-08-07T03:27:59.144Z,933.75
2022-08-07T03:28:51.597Z,933.68
2022-08-07T03:29:51.454Z,933.63
2022-08-07T03:30:51.642Z,933.61
2022-08-07T03:31:51.330Z,933.62
2022-08-07T03:32:58.754Z,933.65
2022-08-07T03:33:51.305Z,933.68
2022-08-07T03:35:16.918Z,933.71
2022-08-07T03:35:51.976Z,933.70
2022-08-07T03:36:51.268Z,933.69
2022-08-07T03:37:53.908Z,933.72
2022-08-07T03:38:51.241Z,933.73
2022-08-07T03:40:13.099Z,933.76
2022-08-07T03:40:57.467Z,933.75
2022-08-07T03:41:53.155Z,933.74
2022-08-07T03:42:51.193Z,933.68
2022-08-07T03:43:57.257Z,933.72
2022-08-07T03:44:53.661Z,933.68
2022-08-07T03:45:51.154Z,933.67
2022-08-07T03:47:10.893Z,933.72
2022-08-07T03:47:51.423Z,933.70
2022-08-07T03:49:02.675Z,933.70
2022-08-07T03:49:52.466Z,933.71
2022-08-07T03:50:55.844Z,933.64
2022-08-07T03:51:55.111Z,933.63
2022-08-07T03:52:51.075Z,933.62
2022-08-07T03:54:33.119Z,933.63
2022-08-07T03:54:54.844Z,933.55
2022-08-07T03:55:57.505Z,933.55
2022-08-07T03:57:03.359Z,933.52
2022-08-07T03:58:32.706Z,933.54
2022-08-07T03:59:09.384Z,933.54
2022-08-07T04:00:01.661Z,933.57
2022-08-07T04:00:53.339Z,933.54
2022-08-07T04:01:51.119Z,933.57
2022-08-07T04:02:50.958Z,933.55
2022-08-07T04:03:55.239Z,933.56
2022-08-07T04:04:50.930Z,933.57
2022-08-07T04:05:50.916Z,933.56
2022-08-07T04:06:51.744Z,933.53
2022-08-07T04:07:51.079Z,933.51
2022-08-07T04:08:50.880Z,933.50
2022-08-07T04:09:50.865Z,933.46
2022-08-07T04:10:53.868Z,933.46
2022-08-07T04:12:21.160Z,933.47
2022-08-07T04:12:50.833Z,933.46
2022-08-07T04:14:32.896Z,933.44
2022-08-07T04:14:50.814Z,933.44
2022-08-07T04:15:50.799Z,933.45
2022-08-07T04:16:58.535Z,933.47
2022-08-07T04:18:56.363Z,933.43
2022-08-07T04:18:59.356Z,933.44
2022-08-07T04:19:52.211Z,933.41
2022-08-07T04:20:54.635Z,933.43
2022-08-07T04:22:00.227Z,933.38
2022-08-07T04:22:53.102Z,933.32
2022-08-07T04:24:07.622Z,933.33
2022-08-07T04:24:50.687Z,933.32
2022-08-07T04:25:50.678Z,933.31
2022-08-07T04:26:50.665Z,933.32
2022-08-07T04:27:59.423Z,933.29
2022-08-07T04:28:50.642Z,933.27
2022-08-07T04:30:01.127Z,933.26
2022-08-07T04:30:57.199Z,933.26
2022-08-07T04:32:09.722Z,933.17
2022-08-07T04:32:58.541Z,933.15
2022-08-07T04:33:55.051Z,933.13
2022-08-07T04:34:50.571Z,933.11
2022-08-07T04:35:51.225Z,933.10
2022-08-07T04:36:50.542Z,933.09
2022-08-07T04:38:00.967Z,933.04
2022-08-07T04:38:50.525Z,933.05
2022-08-07T04:39:50.548Z,932.98
2022-08-07T04:40:52.511Z,933.02
2022-08-07T04:41:50.966Z,933.08
2022-08-07T04:42:52.373Z,933.09
2022-08-07T04:44:13.035Z,933.11
2022-08-07T04:44:54.710Z,933.13
2022-08-07T04:46:01.372Z,933.12
2022-08-07T04:47:04.455Z,933.06
2022-08-07T04:48:00.902Z,933.06
2022-08-07T04:48:51.065Z,933.06
2022-08-07T04:50:03.583Z,933.12
2022-08-07T04:50:52.048Z,933.09
2022-08-07T04:51:50.517Z,933.09
2022-08-07T04:52:51.815Z,933.07
2022-08-07T04:54:05.207Z,933.08
2022-08-07T04:54:50.805Z,933.09
2022-08-07T04:58:10.639Z,933.07
2022-08-07T04:58:12.005Z,933.05
2022-08-07T04:58:16.753Z,933.10
2022-08-07T05:00:09.949Z,933.05
2022-08-07T05:00:11.510Z,933.03
2022-08-07T05:00:50.289Z,932.97
2022-08-07T05:01:50.695Z,932.95
2022-08-07T05:02:50.234Z,932.89
2022-08-07T05:04:07.374Z,932.82
2022-08-07T05:04:50.533Z,932.75
2022-08-07T05:05:54.451Z,932.74
2022-08-07T05:06:51.644Z,932.76
2022-08-07T05:07:51.782Z,932.76
2022-08-07T05:09:01.425Z,932.72
2022-08-07T05:09:50.152Z,932.74
2022-08-07T05:10:50.141Z,932.70
2022-08-07T05:11:58.287Z,932.70
2022-08-07T05:12:52.953Z,932.67
2022-08-07T05:14:52.168Z,932.57
2022-08-07T05:14:54.918Z,932.55
2022-08-07T05:15:50.560Z,932.59
2022-08-07T05:16:52.627Z,932.66
2022-08-07T05:17:51.644Z,932.73
2022-08-07T05:18:50.065Z,932.79
2022-08-07T05:19:50.039Z,932.77
2022-08-07T05:20:50.258Z,932.75
2022-08-07T05:22:00.889Z,932.77
2022-08-07T05:22:49.997Z,932.79
2022-08-07T05:23:49.987Z,932.82
2022-08-07T05:24:50.433Z,932.76
2022-08-07T05:26:10.954Z,932.67
2022-08-07T05:26:50.251Z,932.61
2022-08-07T05:28:16.215Z,932.59
2022-08-07T05:28:50.371Z,932.54
2022-08-07T05:29:51.979Z,932.55
2022-08-07T05:30:49.909Z,932.49
2022-08-07T05:31:52.776Z,932.47
2022-08-07T05:32:49.881Z,932.42
2022-08-07T05:34:01.502Z,932.48
2022-08-07T05:34:49.856Z,932.45
2022-08-07T05:35:49.851Z,932.48
2022-08-07T05:36:52.940Z,932.47
2022-08-07T05:38:08.871Z,932.51
2022-08-07T05:39:00.519Z,932.51
2022-08-07T05:40:14.159Z,932.49
2022-08-07T05:40:50.740Z,932.45
2022-08-07T05:42:01.113Z,932.43
2022-08-07T05:42:56.044Z,932.42
2022-08-07T05:44:08.537Z,932.40
2022-08-07T05:45:04.429Z,932.46
2022-08-07T05:45:49.724Z,932.54
2022-08-07T05:46:51.330Z,932.53
2022-08-07T05:48:01.242Z,932.54
2022-08-07T05:48:58.139Z,932.49
2022-08-07T05:49:49.754Z,932.45
2022-08-07T05:50:50.646Z,932.44
2022-08-07T05:51:49.649Z,932.40
2022-08-07T05:52:49.640Z,932.43
2022-08-07T05:54:13.912Z,932.43
2022-08-07T05:54:56.073Z,932.43
2022-08-07T05:56:03.649Z,932.41
2022-08-07T05:56:51.264Z,932.40
2022-08-07T05:57:49.580Z,932.41
2022-08-07T05:58:52.728Z,932.36
2022-08-07T05:59:55.938Z,932.34
2022-08-07T06:00:50.955Z,932.37
2022-08-07T06:01:49.574Z,932.48
2022-08-07T06:02:49.531Z,932.52
2022-08-07T06:03:53.443Z,932.54
2022-08-07T06:04:50.792Z,932.56
2022-08-07T06:05:49.691Z,932.58
2022-08-07T06:06:56.448Z,932.52
2022-08-07T06:08:14.321Z,932.48
2022-08-07T06:08:49.451Z,932.46
2022-08-07T06:10:05.461Z,932.43
2022-08-07T06:10:51.421Z,932.47
2022-08-07T06:11:49.415Z,932.35
2022-08-07T06:12:49.407Z,932.30
2022-08-07T06:14:11.418Z,932.27
2022-08-07T06:14:49.872Z,932.25
2022-08-07T06:15:50.057Z,932.21
2022-08-07T06:16:50.393Z,932.15
2022-08-07T06:17:53.696Z,932.15
2022-08-07T06:18:51.528Z,932.16
2022-08-07T06:20:03.750Z,932.15
2022-08-07T06:20:50.804Z,932.13
2022-08-07T06:22:15.936Z,932.12
2022-08-07T06:22:50.609Z,932.12
2022-08-07T06:24:52.361Z,932.08
2022-08-07T06:24:56.996Z,932.12
2022-08-07T06:25:54.782Z,932.06
2022-08-07T06:26:49.284Z,932.06
2022-08-07T06:28:01.402Z,932.04
2022-08-07T06:28:49.292Z,932.10
2022-08-07T06:29:49.194Z,932.13
2022-08-07T06:30:50.806Z,932.17
2022-08-07T06:31:50.590Z,932.19
2022-08-07T06:32:49.162Z,932.20
2022-08-07T06:33:49.150Z,932.24
2022-08-07T06:34:49.138Z,932.22
2022-08-07T06:36:12.360Z,932.22
2022-08-07T06:36:51.790Z,932.23
2022-08-07T06:37:49.107Z,932.23
2022-08-07T06:38:51.394Z,932.19
2022-08-07T06:40:17.215Z,932.18
2022-08-07T06:40:49.078Z,932.14
2022-08-07T06:42:02.140Z,932.11
2022-08-07T06:42:49.041Z,932.02
2022-08-07T06:44:01.560Z,932.03
2022-08-07T06:44:51.193Z,932.02
2022-08-07T06:45:49.011Z,931.97
2022-08-07T06:46:53.576Z,931.92
2022-08-07T06:47:58.507Z,931.87
2022-08-07T06:48:48.978Z,931.87
2022-08-07T06:49:51.470Z,931.86
2022-08-07T06:50:48.951Z,931.83
2022-08-07T06:51:50.292Z,931.85
2022-08-07T06:52:52.996Z,931.82
2022-08-07T06:54:12.213Z,931.70
2022-08-07T06:55:31.198Z,931.70
2022-08-07T06:55:53.647Z,931.67
2022-08-07T06:56:50.010Z,931.62
2022-08-07T06:57:53.359Z,931.67
2022-08-07T07:00:11.647Z,931.61
2022-08-07T07:00:14.490Z,931.62
2022-08-07T07:00:48.839Z,931.58
2022-08-07T07:01:50.915Z,931.51
2022-08-07T07:02:57.492Z,931.43
2022-08-07T07:03:58.130Z,931.36
2022-08-07T07:04:54.734Z,931.32
2022-08-07T07:06:03.450Z,931.28
2022-08-07T07:07:00.814Z,931.32
2022-08-07T07:08:00.294Z,931.21
2022-08-07T07:08:48.884Z,931.30
2022-08-07T07:09:48.724Z,931.31
2022-08-07T07:10:57.047Z,931.27
2022-08-07T07:12:09.066Z,931.29
2022-08-07T07:12:50.309Z,931.26
2022-08-07T07:13:58.127Z,931.26
2022-08-07T07:14:48.714Z,931.29
2022-08-07T07:15:51.432Z,931.30
2022-08-07T07:16:51.041Z,931.30
2022-08-07T07:17:50.605Z,931.34
2022-08-07T07:18:48.776Z,931.41
2022-08-07T07:19:58.014Z,931.46
2022-08-07T07:20:48.798Z,931.47
2022-08-07T07:22:11.753Z,931.45
2022-08-07T07:24:06.534Z,931.45
2022-08-07T07:24:08.577Z,931.44
2022-08-07T07:24:56.970Z,931.45
2022-08-07T07:26:32.120Z,931.52
2022-08-07T07:26:49.564Z,931.61
2022-08-07T07:27:55.444Z,931.59
2022-08-07T07:29:56.170Z,931.57
2022-08-07T07:30:07.662Z,931.61
2022-08-07T07:30:48.475Z,931.62
2022-08-07T07:31:48.619Z,931.61
2022-08-07T07:32:48.450Z,931.65
2022-08-07T07:33:54.886Z,931.66
2022-08-07T07:34:48.673Z,931.72
2022-08-07T07:36:05.272Z,931.75
2022-08-07T07:36:52.720Z,931.75
2022-08-07T07:38:02.136Z,931.71
2022-08-07T07:38:48.387Z,931.68
2022-08-07T07:39:54.469Z,931.66
2022-08-07T07:40:48.356Z,931.70
2022-08-07T07:41:50.695Z,931.67
2022-08-07T07:42:53.723Z,931.72
2022-08-07T07:44:17.353Z,931.73
2022-08-07T07:44:49.522Z,931.77
2022-08-07T07:46:38.023Z,931.76
2022-08-07T07:46:54.469Z,931.76
2022-08-07T07:47:51.970Z,931.73
2022-08-07T07:48:48.266Z,931.70
2022-08-07T07:50:36.105Z,931.71
2022-08-07T07:50:48.243Z,931.74
2022-08-07T07:51:58.338Z,931.73
2022-08-07T07:52:48.222Z,931.74
2022-08-07T07:53:52.832Z,931.72
2022-08-07T07:54:50.614Z,931.70
2022-08-07T07:55:57.773Z,931.63
2022-08-07T07:56:48.324Z,931.63
2022-08-07T07:57:53.263Z,931.61
2022-08-07T07:58:48.147Z,931.59
2022-08-07T07:59:52.530Z,931.62
2022-08-07T08:00:53.773Z,931.59
2022-08-07T08:02:01.667Z,931.57
2022-08-07T08:03:04.992Z,931.60
2022-08-07T08:04:10.466Z,931.67
2022-08-07T08:04:50.419Z,931.75
2022-08-07T08:05:54.833Z,931.82
2022-08-07T08:06:51.960Z,931.88
2022-08-07T08:07:59.804Z,931.89
2022-08-07T08:08:48.293Z,931.88
2022-08-07T08:09:52.073Z,931.85
2022-08-07T08:10:48.011Z,931.86
2022-08-07T08:12:03.029Z,931.83
2022-08-07T08:12:52.638Z,931.81
2022-08-07T08:13:54.660Z,931.78
2022-08-07T08:14:47.959Z,931.81
2022-08-07T08:15:58.414Z,931.82
2022-08-07T08:17:57.356Z,931.90
2022-08-07T08:18:36.807Z,931.83
2022-08-07T08:18:50.383Z,931.90
2022-08-07T08:20:17.494Z,931.87
2022-08-07T08:20:48.049Z,931.90
2022-08-07T08:21:55.356Z,931.92
2022-08-07T08:22:54.310Z,931.96
2022-08-07T08:23:47.906Z,931.97
2022-08-07T08:24:47.848Z,932.03
2022-08-07T08:25:49.212Z,932.02
2022-08-07T08:26:50.624Z,932.08
2022-08-07T08:27:56.770Z,932.10
2022-08-07T08:28:48.294Z,932.13
2022-08-07T08:29:55.728Z,932.18
2022-08-07T08:30:51.284Z,932.22
2022-08-07T08:32:17.423Z,932.25
2022-08-07T08:32:48.841Z,932.26
2022-08-07T08:33:49.791Z,932.31
2022-08-07T08:34:47.830Z,932.30
2022-08-07T08:35:49.886Z,932.34
2022-08-07T08:36:47.703Z,932.29
2022-08-07T08:37:59.825Z,932.34
2022-08-07T08:38:47.681Z,932.35
2022-08-07T08:39:55.272Z,932.36
2022-08-07T08:40:47.703Z,932.37
2022-08-07T08:41:59.001Z,932.34
2022-08-07T08:42:47.634Z,932.32
2022-08-07T08:43:53.677Z,932.34
2022-08-07T08:44:47.610Z,932.29
2022-08-07T08:45:58.903Z,932.34
2022-08-07T08:46:47.684Z,932.31
2022-08-07T08:47:54.720Z,932.29
2022-08-07T08:48:51.013Z,932.33
2022-08-07T08:50:02.466Z,932.31
2022-08-07T08:50:47.533Z,932.26
2022-08-07T08:51:49.508Z,932.31
2022-08-07T08:52:51.632Z,932.30
2022-08-07T08:53:47.498Z,932.26
2022-08-07T08:54:47.490Z,932.31
2022-08-07T08:55:54.609Z,932.27
2022-08-07T08:56:47.903Z,932.28
2022-08-07T08:57:47.456Z,932.27
2022-08-07T08:58:47.443Z,932.31
2022-08-07T08:59:48.112Z,932.30
2022-08-07T09:00:48.696Z,932.28
2022-08-07T09:01:49.430Z,932.33
2022-08-07T09:02:49.619Z,932.32
2022-08-07T09:03:52.798Z,932.35
2022-08-07T09:04:47.370Z,932.31
2022-08-07T09:05:47.362Z,932.36
2022-08-07T09:06:48.008Z,932.39
2022-08-07T09:07:57.829Z,932.43
2022-08-07T09:08:47.319Z,932.52
2022-08-07T09:09:47.530Z,932.56
2022-08-07T09:10:47.298Z,932.60
2022-08-07T09:11:53.320Z,932.59
2022-08-07T09:12:53.789Z,932.56
2022-08-07T09:13:47.262Z,932.55
2022-08-07T09:14:50.725Z,932.55
2022-08-07T09:16:23.194Z,932.55
2022-08-07T09:16:47.610Z,932.52
2022-08-07T09:18:00.784Z,932.52
2022-08-07T09:18:53.437Z,932.58
2022-08-07T09:19:51.662Z,932.56
2022-08-07T09:20:58.494Z,932.54
2022-08-07T09:22:10.279Z,932.54
2022-08-07T09:24:32.924Z,932.56
2022-08-07T09:24:35.115Z,932.56
2022-08-07T09:24:58.935Z,932.57
2022-08-07T09:25:54.239Z,932.59
2022-08-07T09:26:47.951Z,932.62
2022-08-07T09:28:00.711Z,932.68
2022-08-07T09:30:01.042Z,932.72
2022-08-07T09:30:05.815Z,932.72
2022-08-07T09:30:48.841Z,932.77
2022-08-07T09:31:49.362Z,932.79
2022-08-07T09:32:47.041Z,932.81
2022-08-07T09:33:57.514Z,932.79
2022-08-07T09:34:53.699Z,932.75
2022-08-07T09:36:04.386Z,932.79
2022-08-07T09:36:49.824Z,932.77
2022-08-07T09:37:48.519Z,932.80
2022-08-07T09:38:53.491Z,932.79
2022-08-07T09:39:54.983Z,932.80
2022-08-07T09:40:46.945Z,932.81
2022-08-07T09:41:58.983Z,932.88
2022-08-07T09:42:47.278Z,932.92
2022-08-07T09:44:05.454Z,932.96
2022-08-07T09:47:25.075Z,933.02
2022-08-07T09:47:25.996Z,932.98
2022-08-07T09:47:50.659Z,933.04
2022-08-07T09:47:58.326Z,933.05
2022-08-07T09:50:02.605Z,933.11
2022-08-07T09:50:02.686Z,933.10
2022-08-07T09:50:46.928Z,933.11
2022-08-07T09:52:10.190Z,933.09
2022-08-07T09:52:51.697Z,933.13
2022-08-07T09:53:50.099Z,933.12
2022-08-07T09:54:46.882Z,933.14
2022-08-07T09:56:04.678Z,933.20
2022-08-07T09:56:46.751Z,933.24
2022-08-07T09:57:47.101Z,933.29
2022-08-07T09:58:48.676Z,933.27
2022-08-07T10:00:00.594Z,933.30
2022-08-07T10:00:46.704Z,933.29
2022-08-07T10:01:50.439Z,933.28
2022-08-07T10:02:55.163Z,933.25
2022-08-07T10:04:06.293Z,933.27
2022-08-07T10:04:47.658Z,933.26
2022-08-07T10:05:59.800Z,933.27
2022-08-07T10:06:48.943Z,933.23
2022-08-07T10:07:53.337Z,933.23
2022-08-07T10:08:46.611Z,933.20
2022-08-07T10:10:00.768Z,933.16
2022-08-07T10:12:01.297Z,933.12
2022-08-07T10:12:53.131Z,933.09
2022-08-07T10:14:00.918Z,933.05
2022-08-07T10:14:54.237Z,933.04
2022-08-07T10:15:46.530Z,933.01
2022-08-07T10:16:46.563Z,933.06
2022-08-07T10:18:00.701Z,933.04
2022-08-07T10:18:46.491Z,933.03
2022-08-07T10:19:46.472Z,933.10
2022-08-07T10:20:46.472Z,933.06
2022-08-07T10:22:12.556Z,933.11
2022-08-07T10:22:46.643Z,933.09
2022-08-07T10:24:05.920Z,933.10
2022-08-07T10:24:46.417Z,933.12
2022-08-07T10:25:46.401Z,933.11
2022-08-07T10:26:53.259Z,933.14
2022-08-07T10:27:47.389Z,933.16
2022-08-07T10:28:49.672Z,933.23
2022-08-07T10:29:51.565Z,933.28
2022-08-07T10:30:46.343Z,933.30
2022-08-07T10:31:46.376Z,933.29
2022-08-07T10:32:52.815Z,933.32
2022-08-07T10:34:14.213Z,933.33
2022-08-07T10:34:46.296Z,933.34
2022-08-07T10:35:56.328Z,933.33
2022-08-07T10:36:46.570Z,933.32
2022-08-07T10:38:00.737Z,933.31
2022-08-07T10:38:48.970Z,933.33
2022-08-07T10:40:03.228Z,933.38
2022-08-07T10:40:46.227Z,933.37
2022-08-07T10:41:57.724Z,933.40
2022-08-07T10:42:46.197Z,933.44
2022-08-07T10:43:46.184Z,933.50
2022-08-07T10:44:46.172Z,933.57
2022-08-07T10:45:57.353Z,933.60
2022-08-07T10:46:46.254Z,933.67
2022-08-07T10:47:52.744Z,933.65
2022-08-07T10:48:46.126Z,933.73
2022-08-07T10:49:50.892Z,933.78
2022-08-07T10:50:50.230Z,933.81
2022-08-07T10:52:01.623Z,933.86
2022-08-07T10:52:51.213Z,933.86
2022-08-07T10:53:46.073Z,933.90
2022-08-07T10:54:53.495Z,933.88
2022-08-07T10:55:46.045Z,933.92
2022-08-07T10:56:46.086Z,933.94
2022-08-07T10:57:46.016Z,933.95
2022-08-07T10:58:47.404Z,933.96
2022-08-07T10:59:47.285Z,933.95
2022-08-07T11:00:50.248Z,933.99
2022-08-07T11:01:51.822Z,934.03
2022-08-07T11:02:48.843Z,934.07
2022-08-07T11:03:55.290Z,934.12
2022-08-07T11:04:46.204Z,934.09
2022-08-07T11:05:50.447Z,934.15
2022-08-07T11:06:45.914Z,934.17
2022-08-07T11:07:58.899Z,934.19
2022-08-07T11:08:46.342Z,934.22
2022-08-07T11:10:09.432Z,934.27
2022-08-07T11:10:50.005Z,934.25
2022-08-07T11:11:45.850Z,934.25
2022-08-07T11:12:45.840Z,934.26
2022-08-07T11:14:44.398Z,934.30
2022-08-07T11:15:00.142Z,934.29
2022-08-07T11:15:54.416Z,934.28
2022-08-07T11:16:50.750Z,934.36
2022-08-07T11:17:46.062Z,934.40
2022-08-07T11:18:50.906Z,934.47
2022-08-07T11:19:46.419Z,934.46
2022-08-07T11:20:45.743Z,934.49
2022-08-07T11:21:45.727Z,934.45
2022-08-07T11:22:46.493Z,934.48
2022-08-07T11:23:45.706Z,934.44
2022-08-07T11:24:45.863Z,934.45
2022-08-07T11:25:49.707Z,934.51
2022-08-07T11:26:50.091Z,934.58
2022-08-07T11:28:01.238Z,934.67
2022-08-07T11:28:55.400Z,934.69
2022-08-07T11:29:49.134Z,934.75
2022-08-07T11:30:45.619Z,934.76
2022-08-07T11:31:46.006Z,934.81
2022-08-07T11:32:45.590Z,934.88
2022-08-07T11:33:54.225Z,934.94
2022-08-07T11:34:45.573Z,935.01
2022-08-07T11:35:59.428Z,935.07
2022-08-07T11:36:45.547Z,935.10
2022-08-07T11:37:58.030Z,935.18
2022-08-07T11:38:50.475Z,935.19
2022-08-07T11:40:00.536Z,935.22
2022-08-07T11:40:49.868Z,935.26
2022-08-07T11:42:01.666Z,935.24
2022-08-07T11:42:45.473Z,935.25
2022-08-07T11:44:11.121Z,935.26
2022-08-07T11:44:52.357Z,935.26
2022-08-07T11:45:53.168Z,935.26
2022-08-07T11:46:45.420Z,935.26
2022-08-07T11:47:56.012Z,935.27
2022-08-07T11:48:58.921Z,935.32
2022-08-07T11:50:11.195Z,935.28
2022-08-07T11:50:57.656Z,935.32
2022-08-07T11:51:46.810Z,935.31
2022-08-07T11:52:45.413Z,935.36
2022-08-07T11:54:01.201Z,935.37
2022-08-07T11:54:54.484Z,935.39
2022-08-07T11:56:09.664Z,935.41
2022-08-07T11:56:45.301Z,935.40
2022-08-07T11:58:00.718Z,935.39
2022-08-07T11:58:45.832Z,935.43
2022-08-07T12:00:12.560Z,935.40
2022-08-07T12:00:53.653Z,935.40
2022-08-07T12:02:00.464Z,935.39
2022-08-07T12:02:52.222Z,935.43
2022-08-07T12:03:46.262Z,935.43
2022-08-07T12:04:45.799Z,935.47
2022-08-07T12:05:49.059Z,935.50
2022-08-07T12:06:55.390Z,935.55
2022-08-07T12:07:45.318Z,935.62
2022-08-07T12:08:45.588Z,935.68
2022-08-07T12:09:46.148Z,935.73
2022-08-07T12:10:45.221Z,935.71
2022-08-07T12:12:09.179Z,935.72
2022-08-07T12:12:45.100Z,935.73
2022-08-07T12:13:45.110Z,935.74
2022-08-07T12:14:45.076Z,935.74
2022-08-07T12:16:05.275Z,935.78
2022-08-07T12:16:45.048Z,935.77
2022-08-07T12:17:58.809Z,935.79
2022-08-07T12:18:45.640Z,935.78
2022-08-07T12:19:56.306Z,935.71
2022-08-07T12:20:45.004Z,935.65
2022-08-07T12:22:37.987Z,935.64
2022-08-07T12:22:55.914Z,935.63
2022-08-07T12:24:06.905Z,935.65
2022-08-07T12:24:44.947Z,935.60
2022-08-07T12:26:02.869Z,935.61
2022-08-07T12:26:49.016Z,935.62
2022-08-07T12:28:09.131Z,935.62
2022-08-07T12:28:49.634Z,935.62
2022-08-07T12:29:44.888Z,935.65